createdAt,value
2017-11-28T00:00:16.252Z,999.25
2017-11-28T00:01:16.223Z,999.18
2017-11-28T00:02:16.227Z,999.18
2017-11-28T00:03:16.116Z,999.15
2017-11-28T00:04:16.093Z,999.12
2017-11-28T00:05:16.084Z,999.16
2017-11-28T00:06:16.053Z,999.13
2017-11-28T00:07:16.007Z,999.19
2017-11-28T00:08:15.937Z,999.15
2017-11-28T00:09:15.925Z,999.10
2017-11-28T00:10:15.858Z,999.15
2017-11-28T00:11:15.821Z,999.12
2017-11-28T00:12:15.803Z,999.12
2017-11-28T00:13:15.720Z,999.09
2017-11-28T00:14:15.686Z,999.08
2017-11-28T00:15:15.658Z,999.09
2017-11-28T00:16:15.631Z,999.11
2017-11-28T00:17:15.602Z,999.09
2017-11-28T00:18:15.545Z,999.07
2017-11-28T00:19:15.508Z,999.07
2017-11-28T00:20:15.460Z,999.00
2017-11-28T00:21:15.434Z,999.03
2017-11-28T00:22:15.375Z,998.99
2017-11-28T00:23:15.336Z,999.05
2017-11-28T00:24:15.320Z,999.03
2017-11-28T00:25:15.269Z,998.97
2017-11-28T00:26:15.230Z,999.03
2017-11-28T00:27:15.204Z,999.04
2017-11-28T00:28:15.167Z,999.07
2017-11-28T00:29:15.105Z,999.05
2017-11-28T00:30:15.098Z,999.00
2017-11-28T00:31:15.060Z,998.98
2017-11-28T00:32:14.981Z,999.03
2017-11-28T00:33:14.935Z,999.03
2017-11-28T00:34:14.906Z,998.98
2017-11-28T00:35:14.890Z,999.04
2017-11-28T00:36:14.859Z,999.02
2017-11-28T00:37:14.832Z,998.99
2017-11-28T00:38:14.779Z,999.07
2017-11-28T00:39:14.766Z,999.03
2017-11-28T00:40:14.673Z,998.96
2017-11-28T00:41:14.614Z,998.95
2017-11-28T00:42:14.599Z,998.98
2017-11-28T00:43:14.539Z,998.91
2017-11-28T00:44:14.504Z,998.92
2017-11-28T00:45:14.501Z,998.91
2017-11-28T00:46:14.418Z,998.92
2017-11-28T00:47:14.425Z,998.91
2017-11-28T00:48:14.416Z,998.90
2017-11-28T00:49:14.341Z,998.85
2017-11-28T00:50:14.283Z,998.83
2017-11-28T00:51:14.239Z,998.78
2017-11-28T00:52:14.190Z,998.79
2017-11-28T00:53:14.142Z,998.74
2017-11-28T00:54:14.160Z,998.76
2017-11-28T00:55:14.079Z,998.80
2017-11-28T00:56:14.031Z,998.81
2017-11-28T00:57:13.996Z,998.79
2017-11-28T00:58:13.956Z,998.84
2017-11-28T00:59:13.936Z,998.81
2017-11-28T01:00:13.868Z,998.79
2017-11-28T01:01:13.852Z,998.71
2017-11-28T01:02:13.884Z,998.83
2017-11-28T01:03:13.751Z,998.80
2017-11-28T01:04:14.338Z,998.79
2017-11-28T01:05:13.718Z,998.77
2017-11-28T01:06:13.635Z,998.69
2017-11-28T01:07:13.607Z,998.62
2017-11-28T01:08:13.559Z,998.65
2017-11-28T01:09:13.557Z,998.64
2017-11-28T01:10:13.508Z,998.63
2017-11-28T01:11:13.442Z,998.64
2017-11-28T01:12:13.403Z,998.60
2017-11-28T01:13:13.359Z,998.62
2017-11-28T01:14:13.406Z,998.64
2017-11-28T01:15:13.367Z,998.64
2017-11-28T01:16:13.272Z,998.65
2017-11-28T01:17:13.210Z,998.67
2017-11-28T01:18:13.176Z,998.64
2017-11-28T01:19:13.147Z,998.65
2017-11-28T01:20:13.094Z,998.68
2017-11-28T01:21:13.077Z,998.65
2017-11-28T01:22:13.019Z,998.68
2017-11-28T01:23:12.972Z,998.68
2017-11-28T01:24:12.931Z,998.65
2017-11-28T01:25:12.910Z,998.67
2017-11-28T01:26:12.902Z,998.71
2017-11-28T01:27:12.829Z,998.71
2017-11-28T01:28:12.798Z,998.70
2017-11-28T01:29:12.819Z,998.63
2017-11-28T01:30:12.751Z,998.67
2017-11-28T01:31:12.679Z,998.61
2017-11-28T01:32:12.625Z,998.58
2017-11-28T01:33:12.603Z,998.66
2017-11-28T01:34:12.574Z,998.68
2017-11-28T01:35:12.561Z,998.59
2017-11-28T01:36:12.481Z,998.65
2017-11-28T01:37:12.455Z,998.62
2017-11-28T01:38:12.387Z,998.58
2017-11-28T01:39:12.348Z,998.66
2017-11-28T01:40:12.362Z,998.61
2017-11-28T01:41:12.271Z,998.63
2017-11-28T01:42:12.236Z,998.62
2017-11-28T01:43:12.197Z,998.57
2017-11-28T01:44:12.233Z,998.67
2017-11-28T01:45:12.155Z,998.63
2017-11-28T01:46:12.074Z,998.54
2017-11-28T01:47:12.498Z,998.59
2017-11-28T01:48:11.998Z,998.57
2017-11-28T01:49:11.986Z,998.38
2017-11-28T01:50:11.925Z,998.53
2017-11-28T01:51:11.880Z,998.42
2017-11-28T01:52:11.870Z,998.47
2017-11-28T01:53:13.125Z,998.48
2017-11-28T01:54:11.764Z,998.50
2017-11-28T01:55:12.702Z,998.41
2017-11-28T01:56:12.626Z,998.46
2017-11-28T01:57:11.651Z,998.33
2017-11-28T01:58:11.621Z,998.36
2017-11-28T01:59:11.571Z,998.39
2017-11-28T02:00:11.538Z,998.35
2017-11-28T02:01:11.498Z,998.29
2017-11-28T02:02:11.454Z,998.34
2017-11-28T02:03:11.418Z,998.30
2017-11-28T02:04:11.404Z,998.30
2017-11-28T02:05:11.348Z,998.30
2017-11-28T02:06:11.337Z,998.34
2017-11-28T02:07:11.320Z,998.29
2017-11-28T02:08:11.205Z,998.20
2017-11-28T02:09:11.209Z,998.22
2017-11-28T02:10:11.147Z,998.22
2017-11-28T02:11:11.143Z,998.27
2017-11-28T02:12:11.089Z,998.21
2017-11-28T02:13:11.022Z,998.21
2017-11-28T02:14:10.978Z,998.14
2017-11-28T02:15:10.934Z,998.18
2017-11-28T02:16:10.923Z,998.17
2017-11-28T02:17:10.852Z,998.15
2017-11-28T02:18:10.821Z,998.15
2017-11-28T02:19:10.837Z,998.08
2017-11-28T02:20:10.749Z,998.07
2017-11-28T02:21:10.699Z,998.10
2017-11-28T02:22:10.709Z,998.13
2017-11-28T02:23:10.634Z,998.07
2017-11-28T02:24:10.644Z,998.06
2017-11-28T02:25:10.546Z,998.07
2017-11-28T02:26:10.522Z,998.10
2017-11-28T02:27:10.465Z,998.09
2017-11-28T02:28:10.420Z,998.06
2017-11-28T02:29:10.399Z,997.97
2017-11-28T02:30:10.439Z,998.04
2017-11-28T02:31:10.321Z,998.05
2017-11-28T02:32:10.382Z,998.04
2017-11-28T02:33:10.248Z,998.06
2017-11-28T02:34:10.204Z,998.03
2017-11-28T02:35:10.165Z,997.94
2017-11-28T02:36:10.125Z,997.88
2017-11-28T02:37:10.111Z,997.91
2017-11-28T02:38:10.068Z,997.86
2017-11-28T02:39:10.038Z,997.88
2017-11-28T02:40:10.012Z,997.81
2017-11-28T02:41:09.923Z,997.83
2017-11-28T02:42:09.876Z,997.81
2017-11-28T02:43:09.886Z,997.77
2017-11-28T02:44:09.797Z,997.73
2017-11-28T02:45:09.791Z,997.79
2017-11-28T02:46:09.724Z,997.68
2017-11-28T02:47:09.683Z,997.75
2017-11-28T02:48:09.710Z,997.79
2017-11-28T02:49:09.602Z,997.68
2017-11-28T02:50:09.584Z,997.69
2017-11-28T02:51:09.533Z,997.69
2017-11-28T02:52:09.505Z,997.75
2017-11-28T02:53:09.479Z,997.66
2017-11-28T02:54:09.444Z,997.68
2017-11-28T02:55:09.379Z,997.68
2017-11-28T02:56:09.361Z,997.66
2017-11-28T02:57:09.288Z,997.63
2017-11-28T02:58:09.246Z,997.71
2017-11-28T02:59:09.251Z,997.68
2017-11-28T03:00:09.187Z,997.69
2017-11-28T03:01:09.147Z,997.70
2017-11-28T03:02:09.109Z,997.65
2017-11-28T03:03:09.049Z,997.67
2017-11-28T03:04:09.029Z,997.58
2017-11-28T03:05:08.996Z,997.73
2017-11-28T03:06:09.003Z,997.67
2017-11-28T03:07:08.891Z,997.74
2017-11-28T03:08:08.879Z,997.71
2017-11-28T03:09:08.813Z,997.69
2017-11-28T03:10:08.807Z,997.57
2017-11-28T03:11:08.739Z,997.69
2017-11-28T03:12:08.709Z,997.70
2017-11-28T03:13:08.661Z,997.74
2017-11-28T03:14:08.635Z,997.77
2017-11-28T03:15:08.616Z,997.73
2017-11-28T03:16:08.567Z,997.67
2017-11-28T03:17:08.548Z,997.66
2017-11-28T03:18:08.462Z,997.73
2017-11-28T03:19:08.473Z,997.72
2017-11-28T03:20:08.409Z,997.77
2017-11-28T03:21:08.361Z,997.71
2017-11-28T03:22:08.341Z,997.72
2017-11-28T03:23:08.307Z,997.72
2017-11-28T03:24:08.290Z,997.77
2017-11-28T03:25:08.196Z,997.66
2017-11-28T03:26:08.161Z,997.69
2017-11-28T03:27:08.123Z,997.74
2017-11-28T03:28:08.090Z,997.73
2017-11-28T03:29:08.067Z,997.66
2017-11-28T03:30:08.036Z,997.71
2017-11-28T03:31:07.973Z,997.73
2017-11-28T03:32:07.957Z,997.78
2017-11-28T03:33:07.899Z,997.72
2017-11-28T03:34:07.892Z,997.69
2017-11-28T03:35:07.804Z,997.66
2017-11-28T03:36:07.801Z,997.60
2017-11-28T03:37:07.773Z,997.57
2017-11-28T03:38:07.715Z,997.60
2017-11-28T03:39:07.650Z,997.58
2017-11-28T03:40:07.639Z,997.56
2017-11-28T03:41:07.568Z,997.57
2017-11-28T03:42:07.565Z,997.55
2017-11-28T03:43:07.547Z,997.56
2017-11-28T03:44:07.543Z,997.60
2017-11-28T03:45:07.455Z,997.58
2017-11-28T03:46:07.409Z,997.52
2017-11-28T03:47:07.336Z,997.53
2017-11-28T03:48:07.293Z,997.50
2017-11-28T03:49:07.315Z,997.54
2017-11-28T03:50:07.224Z,997.55
2017-11-28T03:51:07.198Z,997.53
2017-11-28T03:52:07.165Z,997.52
2017-11-28T03:53:07.104Z,997.50
2017-11-28T03:54:07.068Z,997.45
2017-11-28T03:55:07.022Z,997.45
2017-11-28T03:56:07.422Z,997.49
2017-11-28T03:57:06.948Z,997.54
2017-11-28T03:58:06.933Z,997.54
2017-11-28T03:59:06.869Z,997.54
2017-11-28T04:00:06.848Z,997.58
2017-11-28T04:01:06.785Z,997.61
2017-11-28T04:02:06.759Z,997.58
2017-11-28T04:03:06.712Z,997.58
2017-11-28T04:04:06.697Z,997.53
2017-11-28T04:05:06.715Z,997.50
2017-11-28T04:06:06.611Z,997.54
2017-11-28T04:07:06.588Z,997.50
2017-11-28T04:08:06.554Z,997.51
2017-11-28T04:09:06.496Z,997.52
2017-11-28T04:10:06.442Z,997.54
2017-11-28T04:11:06.400Z,997.51
2017-11-28T04:12:06.356Z,997.58
2017-11-28T04:13:06.365Z,997.51
2017-11-28T04:14:06.279Z,997.57
2017-11-28T04:15:06.247Z,997.63
2017-11-28T04:16:06.230Z,997.64
2017-11-28T04:17:06.193Z,997.63
2017-11-28T04:18:06.169Z,997.59
2017-11-28T04:19:06.087Z,997.55
2017-11-28T04:20:06.107Z,997.51
2017-11-28T04:21:06.013Z,997.47
2017-11-28T04:22:05.983Z,997.48
2017-11-28T04:23:05.932Z,997.48
2017-11-28T04:24:05.913Z,997.54
2017-11-28T04:25:05.847Z,997.60
2017-11-28T04:26:05.846Z,997.56
2017-11-28T04:27:05.786Z,997.60
2017-11-28T04:28:05.742Z,997.56
2017-11-28T04:29:05.699Z,997.50
2017-11-28T04:30:05.668Z,997.51
2017-11-28T04:31:05.665Z,997.59
2017-11-28T04:32:05.574Z,997.58
2017-11-28T04:33:05.581Z,997.58
2017-11-28T04:34:05.538Z,997.58
2017-11-28T04:35:05.461Z,997.59
2017-11-28T04:36:05.455Z,997.54
2017-11-28T04:37:05.428Z,997.59
2017-11-28T04:38:05.356Z,997.62
2017-11-28T04:39:05.353Z,997.68
2017-11-28T04:40:05.264Z,997.58
2017-11-28T04:41:05.230Z,997.55
2017-11-28T04:42:05.188Z,997.61
2017-11-28T04:43:05.156Z,997.58
2017-11-28T04:44:05.120Z,997.62
2017-11-28T04:45:05.089Z,997.64
2017-11-28T04:46:05.035Z,997.74
2017-11-28T04:47:05.003Z,997.80
2017-11-28T04:48:04.985Z,997.73
2017-11-28T04:49:04.937Z,997.76
2017-11-28T04:50:04.879Z,997.67
2017-11-28T04:51:04.832Z,997.75
2017-11-28T04:52:04.810Z,997.69
2017-11-28T04:53:04.755Z,997.75
2017-11-28T04:54:04.735Z,997.77
2017-11-28T04:55:04.672Z,997.77
2017-11-28T04:56:04.668Z,997.81
2017-11-28T04:57:04.602Z,997.75
2017-11-28T04:58:04.603Z,997.77
2017-11-28T04:59:04.533Z,997.76
2017-11-28T05:00:04.482Z,997.81
2017-11-28T05:01:04.465Z,997.80
2017-11-28T05:02:04.415Z,997.83
2017-11-28T05:03:04.382Z,997.84
2017-11-28T05:04:04.383Z,997.80
2017-11-28T05:05:04.343Z,997.82
2017-11-28T05:06:04.245Z,997.80
2017-11-28T05:07:04.222Z,997.82
2017-11-28T05:08:04.187Z,997.76
2017-11-28T05:09:04.118Z,997.71
2017-11-28T05:10:04.119Z,997.68
2017-11-28T05:11:04.059Z,997.69
2017-11-28T05:12:04.013Z,997.69
2017-11-28T05:13:03.989Z,997.70
2017-11-28T05:14:03.950Z,997.67
2017-11-28T05:15:03.897Z,997.75
2017-11-28T05:16:03.854Z,997.73
2017-11-28T05:17:03.817Z,997.75
2017-11-28T05:18:03.766Z,997.79
2017-11-28T05:19:03.732Z,997.70
2017-11-28T05:20:03.686Z,997.83
2017-11-28T05:21:03.672Z,997.76
2017-11-28T05:22:03.614Z,997.82
2017-11-28T05:23:03.567Z,997.67
2017-11-28T05:24:03.532Z,997.75
2017-11-28T05:25:03.512Z,997.72
2017-11-28T05:26:03.458Z,997.78
2017-11-28T05:27:03.414Z,997.76
2017-11-28T05:28:03.412Z,997.80
2017-11-28T05:29:03.335Z,997.82
2017-11-28T05:30:03.295Z,997.79
2017-11-28T05:31:03.264Z,997.76
2017-11-28T05:32:03.236Z,997.87
2017-11-28T05:33:03.185Z,997.82
2017-11-28T05:34:03.148Z,997.89
2017-11-28T05:35:03.120Z,997.89
2017-11-28T05:36:03.058Z,997.86
2017-11-28T05:37:03.057Z,997.85
2017-11-28T05:38:02.994Z,997.97
2017-11-28T05:39:02.933Z,997.90
2017-11-28T05:40:03.010Z,997.93
2017-11-28T05:41:02.894Z,997.88
2017-11-28T05:42:02.815Z,997.80
2017-11-28T05:43:02.787Z,997.85
2017-11-28T05:44:02.746Z,997.83
2017-11-28T05:45:02.700Z,997.83
2017-11-28T05:46:02.681Z,997.82
2017-11-28T05:47:02.623Z,997.81
2017-11-28T05:48:02.595Z,997.85
2017-11-28T05:49:02.564Z,997.90
2017-11-28T05:50:02.526Z,997.97
2017-11-28T05:51:02.463Z,997.92
2017-11-28T05:52:02.423Z,997.81
2017-11-28T05:53:03.623Z,997.84
2017-11-28T05:54:03.124Z,997.86
2017-11-28T05:55:03.131Z,997.88
2017-11-28T05:56:02.315Z,997.84
2017-11-28T05:57:02.274Z,997.83
2017-11-28T05:58:02.263Z,997.86
2017-11-28T05:59:02.144Z,997.84
2017-11-28T06:00:02.108Z,997.84
2017-11-28T06:01:02.071Z,997.80
2017-11-28T06:02:02.513Z,997.78
2017-11-28T06:03:02.000Z,997.86
2017-11-28T06:04:01.958Z,997.76
2017-11-28T06:05:01.908Z,997.74
2017-11-28T06:06:01.884Z,997.78
2017-11-28T06:07:01.834Z,997.76
2017-11-28T06:08:02.620Z,997.77
2017-11-28T06:09:01.749Z,997.80
2017-11-28T06:10:02.058Z,997.80
2017-11-28T06:11:01.674Z,997.80
2017-11-28T06:12:01.649Z,997.86
2017-11-28T06:13:01.612Z,997.93
2017-11-28T06:14:01.581Z,997.91
2017-11-28T06:15:01.529Z,997.87
2017-11-28T06:16:01.521Z,997.95
2017-11-28T06:17:01.449Z,997.93
2017-11-28T06:18:01.385Z,997.93
2017-11-28T06:19:01.363Z,997.87
2017-11-28T06:20:01.327Z,997.96
2017-11-28T06:21:01.265Z,997.93
2017-11-28T06:22:01.230Z,997.92
2017-11-28T06:23:01.201Z,997.89
2017-11-28T06:24:01.184Z,997.88
2017-11-28T06:25:01.133Z,997.87
2017-11-28T06:26:01.070Z,997.86
2017-11-28T06:27:01.028Z,997.85
2017-11-28T06:28:01.005Z,997.81
2017-11-28T06:29:00.949Z,997.85
2017-11-28T06:30:00.914Z,997.85
2017-11-28T06:31:00.868Z,997.88
2017-11-28T06:32:00.829Z,997.94
2017-11-28T06:33:00.787Z,997.84
2017-11-28T06:34:00.747Z,997.88
2017-11-28T06:35:00.709Z,997.81
2017-11-28T06:36:00.668Z,997.92
2017-11-28T06:37:00.629Z,997.95
2017-11-28T06:38:00.587Z,998.00
2017-11-28T06:39:00.635Z,998.09
2017-11-28T06:40:00.507Z,998.03
2017-11-28T06:41:00.468Z,998.02
2017-11-28T06:42:00.434Z,998.07
2017-11-28T06:43:00.386Z,998.09
2017-11-28T06:44:00.347Z,998.09
2017-11-28T06:45:00.306Z,998.14
2017-11-28T06:46:00.267Z,998.16
2017-11-28T06:47:00.227Z,998.06
2017-11-28T06:48:00.185Z,998.10
2017-11-28T06:49:00.150Z,998.13
2017-11-28T06:50:00.105Z,998.12
2017-11-28T06:51:00.064Z,998.14
2017-11-28T06:52:00.026Z,998.18
2017-11-28T06:52:59.990Z,998.10
2017-11-28T06:53:59.945Z,998.23
2017-11-28T06:54:59.905Z,998.26
2017-11-28T06:55:59.862Z,998.28
2017-11-28T06:57:00.013Z,998.22
2017-11-28T06:57:59.783Z,998.19
2017-11-28T06:59:00.015Z,998.18
2017-11-28T06:59:59.701Z,998.21
2017-11-28T07:00:59.657Z,998.27
2017-11-28T07:01:59.622Z,998.20
2017-11-28T07:02:59.581Z,998.26
2017-11-28T07:03:59.541Z,998.31
2017-11-28T07:04:59.499Z,998.25
2017-11-28T07:05:59.460Z,998.25
2017-11-28T07:06:59.421Z,998.29
2017-11-28T07:07:59.380Z,998.33
2017-11-28T07:08:59.337Z,998.30
2017-11-28T07:09:59.300Z,998.20
2017-11-28T07:10:59.258Z,998.19
2017-11-28T07:11:59.218Z,998.31
2017-11-28T07:12:59.178Z,998.43
2017-11-28T07:13:59.155Z,998.40
2017-11-28T07:14:59.097Z,998.39
2017-11-28T07:15:59.057Z,998.43
2017-11-28T07:16:59.015Z,998.44
2017-11-28T07:17:58.976Z,998.45
2017-11-28T07:18:58.936Z,998.42
2017-11-28T07:19:58.897Z,998.47
2017-11-28T07:20:58.854Z,998.48
2017-11-28T07:21:58.815Z,998.41
2017-11-28T07:22:58.774Z,998.37
2017-11-28T07:23:58.736Z,998.38
2017-11-28T07:24:58.693Z,998.33
2017-11-28T07:25:58.660Z,998.41
2017-11-28T07:26:58.617Z,998.40
2017-11-28T07:27:58.574Z,998.49
2017-11-28T07:28:58.533Z,998.32
2017-11-28T07:29:58.492Z,998.33
2017-11-28T07:30:58.448Z,998.38
2017-11-28T07:31:58.413Z,998.44
2017-11-28T07:32:58.372Z,998.38
2017-11-28T07:33:58.334Z,998.39
2017-11-28T07:34:58.292Z,998.38
2017-11-28T07:35:58.252Z,998.47
2017-11-28T07:36:58.211Z,998.42
2017-11-28T07:37:58.172Z,998.50
2017-11-28T07:38:58.136Z,998.41
2017-11-28T07:39:58.095Z,998.47
2017-11-28T07:40:58.053Z,998.42
2017-11-28T07:41:58.010Z,998.46
2017-11-28T07:42:57.971Z,998.50
2017-11-28T07:43:57.932Z,998.60
2017-11-28T07:44:57.891Z,998.57
2017-11-28T07:45:57.853Z,998.57
2017-11-28T07:46:57.816Z,998.60
2017-11-28T07:47:58.239Z,998.58
2017-11-28T07:48:57.731Z,998.58
2017-11-28T07:49:57.699Z,998.69
2017-11-28T07:50:57.657Z,998.62
2017-11-28T07:51:57.621Z,998.68
2017-11-28T07:52:57.582Z,998.67
2017-11-28T07:53:57.544Z,998.67
2017-11-28T07:54:57.508Z,998.74
2017-11-28T07:55:57.482Z,998.72
2017-11-28T07:56:57.432Z,998.67
2017-11-28T07:57:57.405Z,998.71
2017-11-28T07:58:57.359Z,998.63
2017-11-28T07:59:57.323Z,998.74
2017-11-28T08:00:57.298Z,998.76
2017-11-28T08:01:57.250Z,998.72
2017-11-28T08:02:57.216Z,998.74
2017-11-28T08:03:57.200Z,998.72
2017-11-28T08:04:57.145Z,998.74
2017-11-28T08:05:57.110Z,998.79
2017-11-28T08:06:57.074Z,998.71
2017-11-28T08:07:57.041Z,998.77
2017-11-28T08:08:57.004Z,998.73
2017-11-28T08:09:56.970Z,998.78
2017-11-28T08:10:56.937Z,998.72
2017-11-28T08:11:56.905Z,998.74
2017-11-28T08:12:56.868Z,998.77
2017-11-28T08:13:56.835Z,998.79
2017-11-28T08:14:56.801Z,998.77
2017-11-28T08:15:56.772Z,998.84
2017-11-28T08:16:56.733Z,998.84
2017-11-28T08:17:56.700Z,998.72
2017-11-28T08:18:56.669Z,998.77
2017-11-28T08:19:56.636Z,998.76
2017-11-28T08:20:56.602Z,998.75
2017-11-28T08:21:56.571Z,998.82
2017-11-28T08:22:56.538Z,998.89
2017-11-28T08:23:56.507Z,998.87
2017-11-28T08:24:56.480Z,998.80
2017-11-28T08:25:56.442Z,998.87
2017-11-28T08:26:56.405Z,998.82
2017-11-28T08:27:56.379Z,998.89
2017-11-28T08:28:56.347Z,998.86
2017-11-28T08:29:56.315Z,998.89
2017-11-28T08:30:56.285Z,998.89
2017-11-28T08:31:56.255Z,998.95
2017-11-28T08:32:56.229Z,998.87
2017-11-28T08:33:56.191Z,998.96
2017-11-28T08:34:56.162Z,998.96
2017-11-28T08:35:56.130Z,998.99
2017-11-28T08:36:56.099Z,998.93
2017-11-28T08:37:56.070Z,998.94
2017-11-28T08:38:56.041Z,999.00
2017-11-28T08:39:56.010Z,998.93
2017-11-28T08:40:55.980Z,998.94
2017-11-28T08:41:55.956Z,998.89
2017-11-28T08:42:55.921Z,998.98
2017-11-28T08:43:55.894Z,998.95
2017-11-28T08:44:55.864Z,998.98
2017-11-28T08:45:55.834Z,999.10
2017-11-28T08:46:55.804Z,999.05
2017-11-28T08:47:55.778Z,999.07
2017-11-28T08:48:55.751Z,999.04
2017-11-28T08:49:55.716Z,999.13
2017-11-28T08:50:55.693Z,999.08
2017-11-28T08:51:55.663Z,999.06
2017-11-28T08:52:55.636Z,999.11
2017-11-28T08:53:55.605Z,999.11
2017-11-28T08:54:55.577Z,999.13
2017-11-28T08:55:55.550Z,999.14
2017-11-28T08:56:55.529Z,999.12
2017-11-28T08:57:55.499Z,999.13
2017-11-28T08:58:55.469Z,999.14
2017-11-28T08:59:55.440Z,999.19
2017-11-28T09:00:55.412Z,999.16
2017-11-28T09:01:55.393Z,999.18
2017-11-28T09:02:55.361Z,999.19
2017-11-28T09:03:55.333Z,999.22
2017-11-28T09:04:55.317Z,999.28
2017-11-28T09:05:55.280Z,999.29
2017-11-28T09:06:55.254Z,999.24
2017-11-28T09:07:55.227Z,999.26
2017-11-28T09:08:55.203Z,999.19
2017-11-28T09:09:55.176Z,999.26
2017-11-28T09:10:55.147Z,999.27
2017-11-28T09:11:55.122Z,999.39
2017-11-28T09:12:55.096Z,999.40
2017-11-28T09:13:55.068Z,999.42
2017-11-28T09:14:55.044Z,999.49
2017-11-28T09:15:55.017Z,999.48
2017-11-28T09:16:54.991Z,999.38
2017-11-28T09:17:54.963Z,999.48
2017-11-28T09:18:54.939Z,999.48
2017-11-28T09:19:54.911Z,999.63
2017-11-28T09:20:54.886Z,999.70
2017-11-28T09:21:54.862Z,999.60
2017-11-28T09:22:54.832Z,999.56
2017-11-28T09:23:54.807Z,999.66
2017-11-28T09:24:54.779Z,999.69
2017-11-28T09:25:54.755Z,999.80
2017-11-28T09:26:54.731Z,999.77
2017-11-28T09:27:54.702Z,999.22
2017-11-28T09:28:54.676Z,999.20
2017-11-28T09:29:54.652Z,999.57
2017-11-28T09:30:54.625Z,999.73
2017-11-28T09:31:54.599Z,999.41
2017-11-28T09:32:54.572Z,999.79
2017-11-28T09:33:54.545Z,999.99
2017-11-28T09:34:54.521Z,999.15
2017-11-28T09:35:54.496Z,1000.12
2017-11-28T09:36:54.470Z,999.44
2017-11-28T09:37:54.442Z,999.50
2017-11-28T09:38:54.420Z,999.27
2017-11-28T09:39:54.391Z,999.45
2017-11-28T09:40:54.362Z,999.47
2017-11-28T09:41:54.339Z,999.00
2017-11-28T09:42:54.315Z,1001.08
2017-11-28T09:43:54.288Z,1001.26
2017-11-28T09:44:54.261Z,998.99
2017-11-28T09:45:54.236Z,1002.34
2017-11-28T09:46:54.219Z,1002.26
2017-11-28T09:47:54.185Z,1002.72
2017-11-28T09:48:54.157Z,1002.66
2017-11-28T09:49:54.131Z,1000.94
2017-11-28T09:50:54.106Z,1001.26
2017-11-28T09:51:54.082Z,999.14
2017-11-28T09:52:54.056Z,1003.09
2017-11-28T09:53:54.033Z,1003.36
2017-11-28T09:54:54.005Z,998.99
2017-11-28T09:55:53.980Z,998.92
2017-11-28T09:56:53.953Z,998.81
2017-11-28T09:57:53.929Z,1003.91
2017-11-28T09:58:53.902Z,998.76
2017-11-28T09:59:53.877Z,1001.75
2017-11-28T10:00:53.853Z,998.96
2017-11-28T10:01:53.824Z,999.08
2017-11-28T10:02:53.791Z,999.13
2017-11-28T10:03:53.769Z,1000.37
2017-11-28T10:04:53.736Z,999.00
2017-11-28T10:05:53.712Z,1001.24
2017-11-28T10:06:53.988Z,999.75
2017-11-28T10:07:53.658Z,1002.62
2017-11-28T10:08:53.655Z,998.73
2017-11-28T10:09:53.604Z,1003.21
2017-11-28T10:10:53.577Z,998.58
2017-11-28T10:11:53.557Z,998.73
2017-11-28T10:12:53.518Z,998.82
2017-11-28T10:13:53.489Z,998.50
2017-11-28T10:14:53.462Z,1002.25
2017-11-28T10:15:53.435Z,1001.42
2017-11-28T10:16:53.404Z,1001.42
2017-11-28T10:17:53.376Z,1001.97
2017-11-28T10:18:53.346Z,1001.65
2017-11-28T10:19:53.318Z,1003.10
2017-11-28T10:20:53.291Z,1001.55
2017-11-28T10:21:53.291Z,1002.65
2017-11-28T10:22:53.235Z,998.65
2017-11-28T10:23:53.208Z,1001.28
2017-11-28T10:24:53.183Z,1000.73
2017-11-28T10:25:53.157Z,999.50
2017-11-28T10:26:53.127Z,1000.06
2017-11-28T10:27:53.103Z,999.89
2017-11-28T10:28:53.080Z,999.63
2017-11-28T10:29:53.046Z,999.46
2017-11-28T10:30:53.027Z,999.39
2017-11-28T10:31:52.995Z,998.57
2017-11-28T10:32:52.968Z,998.21
2017-11-28T10:33:52.942Z,999.19
2017-11-28T10:34:52.914Z,999.13
2017-11-28T10:35:52.889Z,999.19
2017-11-28T10:36:52.861Z,999.17
2017-11-28T10:37:52.829Z,998.36
2017-11-28T10:38:52.804Z,999.09
2017-11-28T10:39:52.776Z,998.96
2017-11-28T10:40:52.748Z,998.31
2017-11-28T10:41:52.718Z,998.99
2017-11-28T10:42:52.698Z,999.11
2017-11-28T10:43:52.664Z,998.50
2017-11-28T10:44:52.636Z,999.03
2017-11-28T10:45:52.608Z,998.96
2017-11-28T10:46:52.581Z,998.55
2017-11-28T10:47:52.555Z,998.85
2017-11-28T10:48:52.527Z,998.97
2017-11-28T10:49:52.497Z,998.22
2017-11-28T10:50:52.476Z,998.80
2017-11-28T10:51:52.447Z,998.00
2017-11-28T10:52:52.417Z,998.11
2017-11-28T10:53:52.391Z,998.28
2017-11-28T10:54:52.363Z,998.05
2017-11-28T10:55:52.336Z,998.06
2017-11-28T10:56:52.304Z,997.93
2017-11-28T10:57:52.280Z,997.88
2017-11-28T10:58:52.247Z,998.52
2017-11-28T10:59:52.218Z,998.08
2017-11-28T11:00:52.184Z,998.06
2017-11-28T11:01:52.153Z,998.08
2017-11-28T11:02:52.121Z,998.02
2017-11-28T11:03:52.767Z,998.23
2017-11-28T11:04:52.059Z,998.16
2017-11-28T11:05:52.035Z,997.97
2017-11-28T11:06:51.996Z,997.95
2017-11-28T11:07:51.964Z,998.52
2017-11-28T11:08:51.934Z,998.23
2017-11-28T11:09:51.903Z,998.09
2017-11-28T11:10:51.870Z,998.54
2017-11-28T11:11:51.840Z,998.23
2017-11-28T11:12:51.809Z,998.61
2017-11-28T11:13:51.776Z,998.00
2017-11-28T11:14:51.746Z,998.05
2017-11-28T11:15:51.718Z,997.99
2017-11-28T11:16:51.686Z,997.99
2017-11-28T11:17:51.654Z,998.54
2017-11-28T11:18:51.625Z,997.94
2017-11-28T11:19:51.596Z,998.24
2017-11-28T11:20:51.564Z,998.54
2017-11-28T11:21:51.535Z,998.62
2017-11-28T11:22:51.513Z,998.62
2017-11-28T11:23:51.478Z,998.13
2017-11-28T11:24:51.449Z,998.01
2017-11-28T11:25:51.421Z,997.96
2017-11-28T11:26:51.410Z,998.03
2017-11-28T11:27:51.368Z,997.98
2017-11-28T11:28:51.337Z,998.21
2017-11-28T11:29:51.308Z,998.03
2017-11-28T11:30:51.285Z,998.02
2017-11-28T11:31:51.248Z,998.07
2017-11-28T11:32:51.218Z,997.94
2017-11-28T11:33:51.187Z,997.99
2017-11-28T11:34:51.158Z,998.24
2017-11-28T11:35:51.127Z,997.95
2017-11-28T11:36:51.095Z,997.88
2017-11-28T11:37:51.066Z,997.86
2017-11-28T11:38:51.033Z,997.81
2017-11-28T11:39:51.005Z,997.79
2017-11-28T11:40:50.987Z,997.82
2017-11-28T11:41:50.935Z,997.76
2017-11-28T11:42:50.902Z,997.81
2017-11-28T11:43:50.874Z,997.84
2017-11-28T11:44:50.839Z,997.78
2017-11-28T11:45:50.807Z,997.77
2017-11-28T11:46:50.783Z,997.73
2017-11-28T11:47:50.740Z,997.75
2017-11-28T11:48:50.717Z,998.21
2017-11-28T11:49:50.681Z,997.71
2017-11-28T11:50:50.735Z,997.72
2017-11-28T11:51:50.607Z,998.19
2017-11-28T11:52:50.856Z,997.88
2017-11-28T11:53:50.543Z,998.14
2017-11-28T11:54:50.514Z,997.66
2017-11-28T11:55:50.481Z,997.70
2017-11-28T11:56:50.447Z,997.62
2017-11-28T11:57:50.411Z,997.67
2017-11-28T11:58:50.382Z,997.63
2017-11-28T11:59:50.348Z,997.63
2017-11-28T12:00:50.952Z,997.59
2017-11-28T12:01:50.398Z,997.62
2017-11-28T12:02:50.253Z,997.61
2017-11-28T12:03:50.217Z,997.79
2017-11-28T12:04:50.182Z,997.70
2017-11-28T12:05:50.185Z,997.98
2017-11-28T12:06:50.117Z,997.88
2017-11-28T12:07:50.186Z,997.88
2017-11-28T12:08:50.054Z,997.91
2017-11-28T12:09:50.024Z,997.89
2017-11-28T12:10:49.992Z,997.87
2017-11-28T12:11:49.961Z,997.80
2017-11-28T12:12:49.930Z,997.95
2017-11-28T12:13:49.903Z,997.87
2017-11-28T12:14:49.874Z,997.86
2017-11-28T12:15:49.853Z,997.80
2017-11-28T12:16:50.314Z,997.90
2017-11-28T12:17:49.792Z,997.90
2017-11-28T12:18:49.765Z,997.82
2017-11-28T12:19:49.739Z,997.56
2017-11-28T12:20:49.712Z,997.54
2017-11-28T12:21:49.689Z,997.55
2017-11-28T12:22:49.659Z,997.85
2017-11-28T12:23:49.630Z,997.58
2017-11-28T12:24:49.602Z,997.56
2017-11-28T12:25:49.577Z,997.55
2017-11-28T12:26:49.546Z,997.46